createdAt,value
2023-08-08T00:01:12.757Z,72.07
2023-08-08T00:03:47.908Z,72.61
2023-08-08T00:06:18.311Z,72.40
2023-08-08T00:08:48.404Z,72.43
2023-08-08T00:11:18.788Z,72.11
2023-08-08T00:13:49.831Z,72.62
2023-08-08T00:16:20.283Z,71.86
2023-08-08T00:18:54.844Z,72.15
2023-08-08T00:21:25.274Z,72.29
2023-08-08T00:23:56.930Z,72.71
2023-08-08T00:26:31.800Z,72.87
2023-08-08T00:29:03.307Z,73.02
2023-08-08T00:31:34.919Z,73.12
2023-08-08T00:34:07.967Z,73.00
2023-08-08T00:36:38.237Z,72.70
2023-08-08T00:39:09.267Z,73.23
2023-08-08T00:41:39.566Z,72.54
2023-08-08T00:44:10.189Z,72.59
2023-08-08T00:46:40.580Z,72.22
2023-08-08T00:49:13.901Z,72.04
2023-08-08T00:51:47.474Z,72.29
2023-08-08T00:54:22.639Z,72.05
2023-08-08T00:56:53.001Z,71.83
2023-08-08T00:59:23.710Z,71.96
2023-08-08T01:01:59.999Z,71.55
2023-08-08T01:04:33.664Z,72.17
2023-08-08T01:07:11.738Z,72.06
2023-08-08T01:09:57.185Z,71.63
2023-08-08T01:12:29.609Z,71.57
2023-08-08T01:15:00.939Z,71.70
2023-08-08T01:17:31.790Z,71.61
2023-08-08T01:20:05.582Z,71.33
2023-08-08T01:22:41.750Z,70.80
2023-08-08T01:25:14.934Z,70.97
2023-08-08T01:27:47.777Z,70.73
2023-08-08T01:30:19.489Z,69.98
2023-08-08T01:32:52.510Z,70.17
2023-08-08T01:35:23.063Z,69.15
2023-08-08T01:37:58.055Z,68.99
2023-08-08T01:40:33.118Z,68.28
2023-08-08T01:43:03.532Z,68.49
2023-08-08T01:45:37.993Z,68.54
2023-08-08T01:48:11.687Z,68.94
2023-08-08T01:50:45.339Z,67.84
2023-08-08T01:53:15.966Z,68.43
2023-08-08T01:55:48.827Z,67.82
2023-08-08T01:58:19.378Z,68.04
2023-08-08T02:00:48.174Z,67.84
2023-08-08T02:03:21.641Z,67.96
2023-08-08T02:05:52.408Z,68.39
2023-08-08T02:08:22.681Z,67.74
2023-08-08T02:10:55.429Z,67.35
2023-08-08T02:13:25.683Z,67.03
2023-08-08T02:15:58.453Z,67.07
2023-08-08T02:18:28.518Z,67.00
2023-08-08T02:20:58.782Z,66.84
2023-08-08T02:23:28.974Z,67.11
2023-08-08T02:26:01.563Z,67.39
2023-08-08T02:28:31.937Z,67.36
2023-08-08T02:31:04.039Z,67.13
2023-08-08T02:33:34.551Z,67.28
2023-08-08T02:36:04.922Z,66.84
2023-08-08T02:38:34.883Z,67.12
2023-08-08T02:41:10.805Z,67.08
2023-08-08T02:43:44.132Z,66.81
2023-08-08T02:46:14.528Z,67.22
2023-08-08T02:48:44.503Z,66.41
2023-08-08T02:51:14.817Z,67.17
2023-08-08T02:53:44.769Z,67.17
2023-08-08T02:56:17.697Z,66.87
2023-08-08T02:58:48.002Z,67.27
2023-08-08T03:01:18.965Z,67.33
2023-08-08T03:03:50.429Z,67.30
2023-08-08T03:06:20.900Z,66.46
2023-08-08T03:08:51.247Z,66.80
2023-08-08T03:11:24.109Z,67.04
2023-08-08T03:13:54.524Z,66.83
2023-08-08T03:16:24.884Z,67.19
2023-08-08T03:18:55.265Z,67.01
2023-08-08T03:21:25.664Z,66.94
2023-08-08T03:23:56.222Z,67.58
2023-08-08T03:26:31.342Z,66.89
2023-08-08T03:29:01.596Z,67.52
2023-08-08T03:31:32.298Z,67.32
2023-08-08T03:34:02.618Z,67.21
2023-08-08T03:36:33.021Z,67.19
2023-08-08T03:39:05.466Z,67.38
2023-08-08T03:41:40.170Z,67.44
2023-08-08T03:44:11.157Z,67.52
2023-08-08T03:46:41.448Z,67.99
2023-08-08T03:49:11.415Z,67.49
2023-08-08T03:51:41.701Z,66.97
2023-08-08T03:54:13.473Z,66.89
2023-08-08T03:56:46.403Z,67.07
2023-08-08T03:59:16.712Z,66.87
2023-08-08T04:01:46.666Z,66.80
2023-08-08T04:04:19.782Z,66.58
2023-08-08T04:06:53.527Z,66.09
2023-08-08T04:09:23.832Z,65.75
2023-08-08T04:11:56.527Z,65.42
2023-08-08T04:14:26.841Z,65.22
2023-08-08T04:16:56.874Z,64.88
2023-08-08T04:19:27.377Z,64.37
2023-08-08T04:21:57.989Z,64.09
2023-08-08T04:24:29.316Z,63.69
2023-08-08T04:27:02.233Z,63.81
2023-08-08T04:29:32.577Z,63.89
2023-08-08T04:32:03.001Z,64.17
2023-08-08T04:34:33.323Z,63.31
2023-08-08T04:37:03.285Z,63.04
2023-08-08T04:39:33.611Z,62.40
2023-08-08T04:42:06.959Z,61.77
2023-08-08T04:44:37.291Z,61.25
2023-08-08T04:47:07.570Z,61.90
2023-08-08T04:49:37.786Z,61.42
2023-08-08T04:52:08.417Z,60.03
2023-08-08T04:54:38.627Z,59.67
2023-08-08T04:57:12.771Z,58.86
2023-08-08T04:59:43.992Z,58.42
2023-08-08T05:02:14.297Z,57.85
2023-08-08T05:04:46.561Z,58.78
2023-08-08T05:07:16.909Z,59.64
2023-08-08T05:09:47.297Z,60.46
2023-08-08T05:12:20.138Z,60.41
2023-08-08T05:14:50.484Z,60.69
2023-08-08T05:17:20.879Z,60.73
2023-08-08T05:19:52.340Z,60.71
2023-08-08T05:22:22.597Z,59.90
2023-08-08T05:24:52.607Z,59.11
2023-08-08T05:27:25.454Z,58.27
2023-08-08T05:29:55.702Z,58.24
2023-08-08T05:32:26.105Z,58.73
2023-08-08T05:34:56.790Z,58.29
2023-08-08T05:37:27.179Z,58.35
2023-08-08T05:39:57.959Z,58.57
2023-08-08T05:42:35.020Z,57.92
2023-08-08T05:45:06.079Z,56.84
2023-08-08T05:47:37.029Z,56.26
2023-08-08T05:50:08.277Z,54.99
2023-08-08T05:52:38.565Z,53.86
2023-08-08T05:55:10.570Z,53.32
2023-08-08T05:57:43.511Z,52.75
2023-08-08T06:00:15.436Z,53.50
2023-08-08T06:02:45.737Z,54.09
2023-08-08T06:05:16.134Z,54.43
2023-08-08T06:07:46.552Z,53.51
2023-08-08T06:10:16.861Z,52.89
2023-08-08T06:12:49.696Z,51.36
2023-08-08T06:15:20.037Z,49.95
2023-08-08T06:17:50.311Z,49.28
2023-08-08T06:20:20.998Z,49.26
2023-08-08T06:22:51.322Z,47.94
2023-08-08T06:25:27.189Z,48.95
2023-08-08T06:28:03.246Z,47.23
2023-08-08T06:30:33.608Z,46.80
2023-08-08T06:33:04.718Z,46.48
2023-08-08T06:35:35.108Z,46.67
2023-08-08T06:38:05.527Z,47.46
2023-08-08T06:40:41.884Z,46.77
2023-08-08T06:43:14.791Z,47.67
2023-08-08T06:45:45.154Z,46.53
2023-08-08T06:48:15.520Z,46.93
2023-08-08T06:50:45.786Z,47.32
2023-08-08T06:53:16.193Z,46.03
2023-08-08T06:55:43.878Z,44.37
2023-08-08T06:58:16.842Z,45.95
2023-08-08T07:00:49.632Z,45.34
2023-08-08T07:03:20.096Z,44.86
2023-08-08T07:05:53.299Z,46.03
2023-08-08T07:08:23.922Z,44.72
2023-08-08T07:10:55.408Z,43.05
2023-08-08T07:13:29.890Z,43.50
2023-08-08T07:16:00.140Z,44.66
2023-08-08T07:18:30.836Z,44.45
2023-08-08T07:21:01.106Z,45.65
2023-08-08T07:23:31.410Z,44.70
2023-08-08T07:26:01.674Z,45.46
2023-08-08T07:28:34.682Z,45.04
2023-08-08T07:31:05.102Z,45.48
2023-08-08T07:33:35.531Z,44.59
2023-08-08T07:36:05.850Z,44.21
2023-08-08T07:38:36.478Z,44.00
2023-08-08T07:41:09.274Z,43.32
2023-08-08T07:43:42.241Z,41.99
2023-08-08T07:46:13.134Z,41.09
2023-08-08T07:48:43.477Z,41.50
2023-08-08T07:51:13.742Z,41.36
2023-08-08T07:53:47.278Z,41.46
2023-08-08T07:56:20.711Z,41.60
2023-08-08T07:58:54.924Z,41.66
2023-08-08T08:01:26.638Z,42.13
2023-08-08T08:03:57.098Z,41.91
2023-08-08T08:06:27.430Z,40.61
2023-08-08T08:08:57.727Z,40.75
2023-08-08T08:11:28.118Z,39.79
2023-08-08T08:14:00.998Z,40.25
2023-08-08T08:16:31.419Z,39.09
2023-08-08T08:19:06.666Z,39.12
2023-08-08T08:21:36.917Z,39.41
2023-08-08T08:24:10.305Z,40.16
2023-08-08T08:26:40.545Z,39.82
2023-08-08T08:29:16.368Z,39.60
2023-08-08T08:31:46.625Z,40.00
2023-08-08T08:34:16.834Z,41.93
2023-08-08T08:36:50.005Z,41.66
2023-08-08T08:39:20.874Z,39.87
2023-08-08T08:41:53.471Z,40.24
2023-08-08T08:44:27.117Z,38.41
2023-08-08T08:46:59.856Z,40.09
2023-08-08T08:49:32.679Z,39.86
2023-08-08T08:52:06.359Z,38.63
2023-08-08T08:54:37.419Z,40.26
2023-08-08T08:57:08.368Z,40.36
2023-08-08T08:59:41.285Z,40.54
2023-08-08T09:02:13.091Z,39.40
2023-08-08T09:04:44.439Z,39.01
2023-08-08T09:07:16.609Z,39.71
2023-08-08T09:09:47.782Z,39.25
2023-08-08T09:12:19.849Z,39.09
2023-08-08T09:14:59.389Z,39.82
2023-08-08T09:17:42.088Z,36.33
2023-08-08T09:20:19.059Z,36.19
2023-08-08T09:22:49.730Z,34.55
2023-08-08T09:25:20.035Z,35.67
2023-08-08T09:27:52.517Z,33.92
2023-08-08T09:30:25.939Z,34.59
2023-08-08T09:32:56.350Z,32.75
2023-08-08T09:35:27.745Z,36.34
2023-08-08T09:37:58.779Z,37.62
2023-08-08T09:40:29.160Z,35.51
2023-08-08T09:43:01.550Z,34.99
2023-08-08T09:45:44.217Z,33.68
2023-08-08T09:48:14.731Z,35.77
2023-08-08T09:50:46.539Z,34.88
2023-08-08T09:53:17.523Z,35.26
2023-08-08T09:55:48.457Z,36.84
2023-08-08T09:58:23.266Z,36.89
2023-08-08T10:00:56.521Z,36.53
2023-08-08T10:03:29.899Z,36.36
2023-08-08T10:06:00.483Z,36.63
2023-08-08T10:08:30.891Z,36.29
2023-08-08T10:11:01.322Z,36.62
2023-08-08T10:13:31.702Z,34.17
2023-08-08T10:16:11.786Z,34.23
2023-08-08T10:18:42.317Z,34.59
2023-08-08T10:21:12.877Z,33.20
2023-08-08T10:23:47.373Z,33.84
2023-08-08T10:26:23.872Z,34.21
2023-08-08T10:29:00.298Z,33.29
2023-08-08T10:31:37.915Z,33.35
2023-08-08T10:34:11.067Z,31.55
2023-08-08T10:36:55.312Z,31.83
2023-08-08T10:39:25.826Z,32.28
2023-08-08T10:41:56.116Z,32.03
2023-08-08T10:44:27.756Z,30.96
2023-08-08T10:47:04.604Z,31.31
2023-08-08T10:49:35.996Z,32.13
2023-08-08T10:52:07.814Z,30.48
2023-08-08T10:54:44.056Z,29.34
2023-08-08T10:57:20.744Z,29.78
2023-08-08T10:59:51.373Z,27.82
2023-08-08T11:02:27.825Z,31.13
2023-08-08T11:05:00.389Z,33.29
2023-08-08T11:07:32.047Z,30.52
2023-08-08T11:10:02.426Z,30.85
2023-08-08T11:12:32.767Z,30.42
2023-08-08T11:15:03.900Z,32.12
2023-08-08T11:17:40.689Z,31.23
2023-08-08T11:20:11.942Z,32.30
2023-08-08T11:22:42.289Z,31.32
2023-08-08T11:25:13.028Z,30.82
2023-08-08T11:27:44.617Z,30.59
2023-08-08T11:30:16.015Z,30.08
2023-08-08T11:33:15.452Z,30.94
2023-08-08T11:35:41.702Z,32.27
2023-08-08T11:38:12.041Z,32.39
2023-08-08T11:40:42.431Z,32.33
2023-08-08T11:43:13.140Z,32.71
2023-08-08T11:45:43.702Z,32.36
2023-08-08T11:48:17.097Z,33.81
2023-08-08T11:50:48.421Z,35.10
2023-08-08T11:53:18.721Z,33.88
2023-08-08T11:55:54.946Z,35.00
2023-08-08T11:58:28.122Z,31.73
2023-08-08T12:00:58.584Z,30.54
2023-08-08T12:03:32.356Z,30.99
2023-08-08T12:06:05.770Z,32.81
2023-08-08T12:08:37.140Z,33.20
2023-08-08T12:11:09.538Z,31.88
2023-08-08T12:13:43.719Z,32.46
2023-08-08T12:16:17.507Z,33.84
2023-08-08T12:18:53.111Z,34.25
2023-08-08T12:21:28.442Z,32.49
2023-08-08T12:23:58.957Z,33.75
2023-08-08T12:26:29.272Z,33.95
2023-08-08T12:28:59.627Z,33.71
2023-08-08T12:31:29.989Z,34.70
2023-08-08T12:34:04.060Z,34.52
2023-08-08T12:36:34.475Z,34.62
2023-08-08T12:39:04.837Z,33.99
2023-08-08T12:41:35.140Z,33.07
2023-08-08T12:44:05.477Z,33.05
2023-08-08T12:46:35.875Z,32.94
2023-08-08T12:49:09.633Z,33.69
2023-08-08T12:51:39.943Z,34.68
2023-08-08T12:54:10.587Z,33.48
2023-08-08T12:56:40.875Z,31.23
2023-08-08T12:59:11.216Z,30.23
2023-08-08T13:01:41.526Z,30.64
2023-08-08T13:06:48.305Z,29.37
2023-08-08T13:09:18.980Z,29.01
2023-08-08T13:11:49.349Z,29.66
2023-08-08T13:14:22.788Z,31.53
2023-08-08T13:16:54.467Z,29.51
2023-08-08T13:19:28.020Z,30.60
2023-08-08T13:21:59.320Z,31.49
2023-08-08T13:24:30.062Z,30.33
2023-08-08T13:27:00.398Z,30.32
2023-08-08T13:29:30.672Z,30.77
2023-08-08T13:32:01.249Z,29.58
2023-08-08T13:34:34.339Z,30.05
2023-08-08T13:37:04.846Z,30.32
2023-08-08T13:39:35.231Z,30.80
2023-08-08T13:42:05.795Z,30.53
2023-08-08T13:44:36.085Z,31.54
2023-08-08T13:47:09.314Z,30.40
2023-08-08T13:49:42.189Z,31.46
2023-08-08T13:52:13.163Z,31.23
2023-08-08T13:54:43.553Z,30.90
2023-08-08T13:57:17.472Z,30.38
2023-08-08T13:59:47.848Z,31.80
2023-08-08T14:02:21.059Z,31.40
2023-08-08T14:04:54.015Z,31.45
2023-08-08T14:07:25.326Z,31.03
2023-08-08T14:09:58.155Z,30.61
2023-08-08T14:12:28.629Z,30.43
2023-08-08T14:14:58.916Z,31.34
2023-08-08T14:17:29.301Z,31.29
2023-08-08T14:20:02.450Z,31.50
2023-08-08T14:22:32.857Z,32.03
2023-08-08T14:25:03.465Z,32.26
2023-08-08T14:27:33.996Z,32.23
2023-08-08T14:30:05.202Z,33.36
2023-08-08T14:32:40.688Z,33.02
2023-08-08T14:35:19.437Z,32.18
2023-08-08T14:37:52.646Z,33.37
2023-08-08T14:40:23.114Z,33.27
2023-08-08T14:42:56.186Z,32.26
2023-08-08T14:45:29.384Z,33.21
2023-08-08T14:48:00.012Z,33.87
2023-08-08T14:50:33.247Z,34.26
2023-08-08T14:53:03.526Z,35.64
2023-08-08T14:55:34.009Z,35.72
2023-08-08T14:58:04.340Z,35.15
2023-08-08T15:00:34.760Z,35.71
2023-08-08T15:03:05.308Z,36.06
2023-08-08T15:05:46.748Z,36.29
2023-08-08T15:08:17.768Z,35.89
2023-08-08T15:10:48.160Z,36.08
2023-08-08T15:13:18.421Z,36.40
2023-08-08T15:15:48.868Z,36.63
2023-08-08T15:18:20.548Z,37.12
2023-08-08T15:20:53.548Z,38.04
2023-08-08T15:23:25.734Z,37.20
2023-08-08T15:25:56.412Z,37.82
2023-08-08T15:28:26.841Z,37.86
2023-08-08T15:30:59.677Z,38.66
2023-08-08T15:33:32.946Z,38.58
2023-08-08T15:36:06.048Z,39.10
2023-08-08T15:38:36.401Z,39.14
2023-08-08T15:41:09.654Z,38.53
2023-08-08T15:43:42.086Z,39.60
2023-08-08T15:46:12.392Z,38.65
2023-08-08T15:48:43.381Z,38.63
2023-08-08T15:51:16.295Z,38.39
2023-08-08T15:53:46.653Z,38.30
2023-08-08T15:56:17.051Z,38.24
2023-08-08T15:58:47.432Z,38.78
2023-08-08T16:01:17.804Z,38.46
2023-08-08T16:03:50.483Z,38.97
2023-08-08T16:06:24.621Z,39.55
2023-08-08T16:08:56.055Z,39.82
2023-08-08T16:11:26.385Z,40.36
2023-08-08T16:13:56.636Z,40.59
2023-08-08T16:16:26.934Z,40.91
2023-08-08T16:18:57.259Z,41.38
2023-08-08T16:21:30.155Z,41.51
2023-08-08T16:24:00.560Z,41.65
2023-08-08T16:26:30.894Z,41.73
2023-08-08T16:29:01.412Z,42.56
2023-08-08T16:31:33.190Z,42.66
2023-08-08T16:34:04.369Z,41.97
2023-08-08T16:36:38.670Z,41.48
2023-08-08T16:39:18.322Z,42.02
2023-08-08T16:41:49.392Z,42.00
2023-08-08T16:44:21.805Z,43.85
2023-08-08T16:46:54.557Z,43.26
2023-08-08T16:49:24.977Z,44.22
2023-08-08T16:51:57.866Z,44.07
2023-08-08T16:54:28.250Z,44.42
2023-08-08T16:56:58.580Z,44.74
2023-08-08T16:59:28.841Z,44.69
2023-08-08T17:02:00.098Z,44.10
2023-08-08T17:04:31.009Z,44.78
2023-08-08T17:07:06.847Z,44.93
2023-08-08T17:09:37.242Z,45.19
2023-08-08T17:12:08.254Z,45.01
2023-08-08T17:14:39.071Z,46.32
2023-08-08T17:17:09.494Z,46.58
2023-08-08T17:19:39.931Z,46.67
2023-08-08T17:22:13.009Z,47.93
2023-08-08T17:24:43.333Z,48.18
2023-08-08T17:27:13.743Z,49.02
2023-08-08T17:29:43.984Z,49.63
2023-08-08T17:32:17.202Z,50.22
2023-08-08T17:34:47.632Z,50.82
2023-08-08T17:37:25.953Z,51.37
2023-08-08T17:39:56.276Z,52.21
2023-08-08T17:42:26.543Z,53.34
2023-08-08T17:44:56.890Z,53.99
2023-08-08T17:47:27.234Z,54.06
2023-08-08T17:49:58.903Z,54.47
2023-08-08T17:52:31.908Z,55.36
2023-08-08T17:55:22.142Z,55.90
2023-08-08T17:57:55.158Z,56.28
2023-08-08T18:00:25.952Z,57.13
2023-08-08T18:02:57.033Z,57.18
2023-08-08T18:05:27.693Z,57.36
2023-08-08T18:08:00.845Z,57.18
2023-08-08T18:10:32.966Z,57.68
2023-08-08T18:13:03.276Z,57.99
2023-08-08T18:15:33.888Z,57.80
2023-08-08T18:18:06.116Z,57.93
2023-08-08T18:20:44.298Z,58.54
2023-08-08T18:23:17.671Z,58.64
2023-08-08T18:25:48.616Z,58.83
2023-08-08T18:28:20.516Z,58.69
2023-08-08T18:30:51.504Z,61.31
2023-08-08T18:33:22.679Z,60.19
2023-08-08T18:35:54.603Z,59.81
2023-08-08T18:38:28.105Z,59.97
2023-08-08T18:40:58.923Z,60.68
2023-08-08T18:43:29.943Z,60.38
2023-08-08T18:46:00.704Z,60.79
2023-08-08T18:48:31.213Z,60.24
2023-08-08T18:51:01.587Z,60.15
2023-08-08T18:53:34.657Z,60.07
2023-08-08T18:56:05.029Z,60.90
2023-08-08T18:58:35.509Z,60.74
2023-08-08T19:01:06.980Z,61.39
2023-08-08T19:03:37.655Z,61.90
2023-08-08T19:06:15.462Z,61.99
2023-08-08T19:08:50.523Z,62.67
2023-08-08T19:11:21.010Z,62.70
2023-08-08T19:13:51.501Z,62.90
2023-08-08T19:16:21.871Z,63.34
2023-08-08T19:18:52.215Z,63.38
2023-08-08T19:21:23.306Z,64.28
2023-08-08T19:23:59.278Z,64.38
2023-08-08T19:26:30.384Z,64.94
2023-08-08T19:29:01.880Z,64.37
2023-08-08T19:31:32.264Z,64.82
2023-08-08T19:34:07.609Z,64.93
2023-08-08T19:36:38.284Z,64.78
2023-08-08T19:39:12.787Z,64.73
2023-08-08T19:41:48.654Z,64.46
2023-08-08T19:44:19.112Z,64.84
2023-08-08T19:46:49.514Z,64.81
2023-08-08T19:49:22.619Z,64.91
2023-08-08T19:51:52.942Z,64.45
2023-08-08T19:54:25.551Z,64.95
2023-08-08T19:56:55.958Z,65.44
2023-08-08T19:59:26.268Z,65.50
2023-08-08T20:01:59.907Z,65.42
2023-08-08T20:04:37.496Z,65.73
2023-08-08T20:07:08.187Z,65.92
2023-08-08T20:09:41.186Z,66.32
2023-08-08T20:12:11.614Z,66.41
2023-08-08T20:14:43.103Z,66.68
2023-08-08T20:17:13.430Z,66.24
2023-08-08T20:19:43.742Z,66.45
2023-08-08T20:22:13.740Z,66.09
2023-08-08T20:24:46.716Z,66.38
2023-08-08T20:27:17.001Z,66.33
2023-08-08T20:29:47.435Z,66.16
2023-08-08T20:32:17.637Z,66.07
2023-08-08T20:34:47.643Z,66.01
2023-08-08T20:37:18.739Z,66.18
2023-08-08T20:39:51.615Z,66.07
2023-08-08T20:42:22.106Z,66.28
2023-08-08T20:44:55.983Z,66.43
2023-08-08T20:47:26.265Z,66.27
2023-08-08T20:49:56.721Z,66.84
2023-08-08T20:52:27.086Z,66.55
2023-08-08T20:55:01.031Z,66.81
2023-08-08T20:57:31.514Z,66.73
2023-08-08T21:00:02.438Z,66.77
2023-08-08T21:02:34.490Z,66.73
2023-08-08T21:05:04.881Z,66.84
2023-08-08T21:07:36.893Z,66.71
2023-08-08T21:10:10.992Z,67.10
2023-08-08T21:12:41.406Z,67.03
2023-08-08T21:15:14.148Z,67.34
2023-08-08T21:17:47.484Z,66.75
2023-08-08T21:20:17.942Z,66.76
2023-08-08T21:22:48.294Z,67.44
2023-08-08T21:25:22.910Z,67.46
2023-08-08T21:27:53.235Z,66.93
2023-08-08T21:30:23.227Z,66.77
2023-08-08T21:32:53.488Z,66.43
2023-08-08T21:35:23.538Z,66.72
2023-08-08T21:37:53.883Z,66.48
2023-08-08T21:40:27.126Z,66.12
2023-08-08T21:42:57.376Z,66.36
2023-08-08T21:45:28.017Z,66.39
2023-08-08T21:47:59.917Z,66.25
2023-08-08T21:50:30.461Z,65.83
2023-08-08T21:53:00.895Z,65.90
2023-08-08T21:55:33.740Z,66.08
2023-08-08T21:58:07.193Z,65.48
2023-08-08T22:00:37.759Z,65.62
2023-08-08T22:03:13.935Z,65.08
2023-08-08T22:05:46.925Z,65.45
2023-08-08T22:08:17.318Z,64.88
2023-08-08T22:10:53.083Z,65.18
2023-08-08T22:13:23.903Z,64.80
2023-08-08T22:15:55.221Z,64.41
2023-08-08T22:18:25.580Z,64.86
2023-08-08T22:20:53.578Z,64.61
2023-08-08T22:23:23.972Z,64.36
2023-08-08T22:25:58.453Z,64.46
2023-08-08T22:28:28.874Z,64.82
2023-08-08T22:30:59.642Z,64.78
2023-08-08T22:33:32.417Z,64.76
2023-08-08T22:36:04.809Z,64.84
2023-08-08T22:38:37.530Z,65.04
2023-08-08T22:41:10.398Z,64.81
2023-08-08T22:43:40.975Z,65.17
2023-08-08T22:46:16.313Z,65.70
2023-08-08T22:48:46.600Z,65.74
2023-08-08T22:51:23.663Z,65.45
2023-08-08T22:53:56.374Z,65.97
2023-08-08T22:56:29.279Z,66.26
2023-08-08T22:58:59.521Z,66.32
2023-08-08T23:01:29.566Z,66.57
2023-08-08T23:03:59.861Z,67.05
2023-08-08T23:06:30.103Z,66.97
2023-08-08T23:09:00.389Z,67.16
2023-08-08T23:11:33.239Z,67.20
2023-08-08T23:14:03.702Z,67.42
2023-08-08T23:16:34.011Z,67.58
2023-08-08T23:19:09.593Z,67.41
2023-08-08T23:21:42.721Z,67.58
2023-08-08T23:24:13.373Z,66.99
2023-08-08T23:26:49.475Z,67.62
2023-08-08T23:29:19.796Z,67.31
2023-08-08T23:31:49.876Z,67.62
2023-08-08T23:34:20.838Z,67.90
2023-08-08T23:36:51.519Z,67.98
2023-08-08T23:39:25.904Z,67.50
2023-08-08T23:42:01.640Z,67.58
2023-08-08T23:44:31.921Z,67.90
2023-08-08T23:47:02.465Z,68.00
2023-08-08T23:49:32.913Z,67.86
2023-08-08T23:52:02.906Z,68.39
2023-08-08T23:54:35.416Z,68.30
2023-08-08T23:57:09.107Z,68.19
2023-08-08T23:59:42.317Z,68.08
